sensor_id;sensor_type;location;lat;lon;timestamp;pressure;altitude;pressure_sealevel;temperature;humidity
61086;BME280;46967;48.876;2.136;2022-12-15T00:00:39;100409.09;;;0.56;65.54
61086;BME280;46967;48.876;2.136;2022-12-15T00:03:23;100409.09;;;0.54;65.40
61086;BME280;46967;48.876;2.136;2022-12-15T00:06:07;100387.75;;;0.47;65.64
61086;BME280;46967;48.876;2.136;2022-12-15T00:08:51;100386.91;;;0.45;65.89
61086;BME280;46967;48.876;2.136;2022-12-15T00:11:35;100386.91;;;0.48;65.93
61086;BME280;46967;48.876;2.136;2022-12-15T00:14:19;100392.00;;;0.47;66.10
61086;BME280;46967;48.876;2.136;2022-12-15T00:17:03;100389.47;;;0.50;66.27
61086;BME280;46967;48.876;2.136;2022-12-15T00:19:47;100386.91;;;0.50;66.61
61086;BME280;46967;48.876;2.136;2022-12-15T00:22:31;100399.69;;;0.48;66.52
61086;BME280;46967;48.876;2.136;2022-12-15T00:25:15;100402.22;;;0.48;66.34
61086;BME280;46967;48.876;2.136;2022-12-15T00:27:59;100407.31;;;0.45;67.37
61086;BME280;46967;48.876;2.136;2022-12-15T00:30:43;100415.84;;;0.47;67.56
61086;BME280;46967;48.876;2.136;2022-12-15T00:33:27;100407.28;;;0.41;67.25
61086;BME280;46967;48.876;2.136;2022-12-15T00:36:11;100412.41;;;0.42;67.45
61086;BME280;46967;48.876;2.136;2022-12-15T00:38:55;100413.25;;;0.43;67.09
61086;BME280;46967;48.876;2.136;2022-12-15T00:41:20;100411.56;;;0.42;67.07
61086;BME280;46967;48.876;2.136;2022-12-15T00:43:46;100414.94;;;0.39;67.20
61086;BME280;46967;48.876;2.136;2022-12-15T00:46:12;100414.94;;;0.39;67.49
61086;BME280;46967;48.876;2.136;2022-12-15T00:48:56;100416.66;;;0.39;67.97
61086;BME280;46967;48.876;2.136;2022-12-15T00:51:22;100421.75;;;0.35;68.22
61086;BME280;46967;48.876;2.136;2022-12-15T00:54:07;100416.63;;;0.34;68.46
61086;BME280;46967;48.876;2.136;2022-12-15T00:56:51;100398.72;;;0.31;68.52
61086;BME280;46967;48.876;2.136;2022-12-15T00:59:35;100403.78;;;0.22;68.75
61086;BME280;46967;48.876;2.136;2022-12-15T01:02:19;100420.78;;;0.18;69.16
61086;BME280;46967;48.876;2.136;2022-12-15T01:05:03;100408.84;;;0.17;69.53
61086;BME280;46967;48.876;2.136;2022-12-15T01:07:47;100402.06;;;0.17;69.51
61086;BME280;46967;48.876;2.136;2022-12-15T01:10:31;100385.88;;;0.14;69.33
61086;BME280;46967;48.876;2.136;2022-12-15T01:13:15;100404.59;;;0.13;69.08
61086;BME280;46967;48.876;2.136;2022-12-15T01:15:59;100418.19;;;0.10;69.41
61086;BME280;46967;48.876;2.136;2022-12-15T01:18:43;100420.72;;;0.09;69.58
61086;BME280;46967;48.876;2.136;2022-12-15T01:21:27;100420.69;;;0.04;69.38
61086;BME280;46967;48.876;2.136;2022-12-15T01:23:52;100408.75;;;0.02;69.69
61086;BME280;46967;48.876;2.136;2022-12-15T01:26:18;100419.78;;;-0.03;70.04
61086;BME280;46967;48.876;2.136;2022-12-15T01:28:43;100417.16;;;-0.10;70.13
61086;BME280;46967;48.876;2.136;2022-12-15T01:31:10;100430.78;;;-0.08;69.86
61086;BME280;46967;48.876;2.136;2022-12-15T01:33:36;100430.75;;;-0.11;70.32
61086;BME280;46967;48.876;2.136;2022-12-15T01:36:02;100427.38;;;-0.10;69.85
61086;BME280;46967;48.876;2.136;2022-12-15T01:38:28;100430.75;;;-0.13;69.92
61086;BME280;46967;48.876;2.136;2022-12-15T01:41:00;100433.25;;;-0.17;70.14
61086;BME280;46967;48.876;2.136;2022-12-15T01:43:30;100436.66;;;-0.19;70.60
61086;BME280;46967;48.876;2.136;2022-12-15T01:46:02;100429.00;;;-0.22;70.42
61086;BME280;46967;48.876;2.136;2022-12-15T01:48:40;100431.53;;;-0.23;70.75
61086;BME280;46967;48.876;2.136;2022-12-15T01:51:31;100434.94;;;-0.20;70.73
61086;BME280;46967;48.876;2.136;2022-12-15T01:54:19;100443.47;;;-0.21;70.52
61086;BME280;46967;48.876;2.136;2022-12-15T01:56:48;100440.00;;;-0.24;70.33
61086;BME280;46967;48.876;2.136;2022-12-15T01:59:22;100439.97;;;-0.29;70.62
61086;BME280;46967;48.876;2.136;2022-12-15T02:01:49;100438.25;;;-0.31;70.88
61086;BME280;46967;48.876;2.136;2022-12-15T02:04:17;100445.00;;;-0.35;70.98
61086;BME280;46967;48.876;2.136;2022-12-15T02:06:43;100448.41;;;-0.36;71.12
61086;BME280;46967;48.876;2.136;2022-12-15T02:09:09;100441.56;;;-0.40;71.16
61086;BME280;46967;48.876;2.136;2022-12-15T02:11:43;100444.09;;;-0.43;71.51
61086;BME280;46967;48.876;2.136;2022-12-15T02:14:18;100446.59;;;-0.46;71.56
61086;BME280;46967;48.876;2.136;2022-12-15T02:31:05;100445.63;;;-0.59;71.86
61086;BME280;46967;48.876;2.136;2022-12-15T02:33:55;100439.69;;;-0.61;71.83
61086;BME280;46967;48.876;2.136;2022-12-15T02:36:37;100431.13;;;-0.66;71.92
61086;BME280;46967;48.876;2.136;2022-12-15T02:39:05;100438.75;;;-0.68;72.02
61086;BME280;46967;48.876;2.136;2022-12-15T02:41:42;100445.50;;;-0.71;72.37
61086;BME280;46967;48.876;2.136;2022-12-15T02:47:07;100477.00;;;-0.68;72.13
61086;BME280;46967;48.876;2.136;2022-12-15T02:55:18;100460.75;;;-0.79;72.65
61086;BME280;46967;48.876;2.136;2022-12-15T03:00:15;100447.88;;;-0.90;73.54
61086;BME280;46967;48.876;2.136;2022-12-15T03:02:46;100449.53;;;-0.91;73.40
61086;BME280;46967;48.876;2.136;2022-12-15T03:05:13;100443.56;;;-0.94;73.59
61086;BME280;46967;48.876;2.136;2022-12-15T03:07:39;100441.00;;;-0.94;73.93
61086;BME280;46967;48.876;2.136;2022-12-15T03:10:08;100440.16;;;-0.96;73.69
61086;BME280;46967;48.876;2.136;2022-12-15T03:12:34;100443.56;;;-0.94;73.52
61086;BME280;46967;48.876;2.136;2022-12-15T03:15:00;100455.47;;;-0.95;73.53
61086;BME280;46967;48.876;2.136;2022-12-15T03:17:25;100456.31;;;-0.94;73.45
61086;BME280;46967;48.876;2.136;2022-12-15T03:19:50;100452.00;;;-1.00;73.52
61086;BME280;46967;48.876;2.136;2022-12-15T03:22:16;100455.34;;;-1.02;73.44
61086;BME280;46967;48.876;2.136;2022-12-15T03:24:41;100451.06;;;-1.05;73.59
61086;BME280;46967;48.876;2.136;2022-12-15T03:27:06;100458.69;;;-1.06;73.74
61086;BME280;46967;48.876;2.136;2022-12-15T03:29:32;100453.59;;;-1.08;73.93
61086;BME280;46967;48.876;2.136;2022-12-15T03:31:57;100446.81;;;-1.07;74.17
61086;BME280;46967;48.876;2.136;2022-12-15T03:34:23;100437.44;;;-1.10;73.99
61086;BME280;46967;48.876;2.136;2022-12-15T03:36:48;100429.75;;;-1.13;74.07
61086;BME280;46967;48.876;2.136;2022-12-15T03:39:15;100441.59;;;-1.17;74.36
61086;BME280;46967;48.876;2.136;2022-12-15T03:41:40;100436.50;;;-1.18;74.19
61086;BME280;46967;48.876;2.136;2022-12-15T03:44:06;100433.03;;;-1.23;74.33
61086;BME280;46967;48.876;2.136;2022-12-15T03:46:31;100435.59;;;-1.22;74.58
61086;BME280;46967;48.876;2.136;2022-12-15T03:48:56;100438.97;;;-1.23;74.90
61086;BME280;46967;48.876;2.136;2022-12-15T03:51:22;100443.25;;;-1.20;74.43
61086;BME280;46967;48.876;2.136;2022-12-15T03:53:48;100445.78;;;-1.23;74.35
61086;BME280;46967;48.876;2.136;2022-12-15T03:56:14;100451.69;;;-1.24;74.62
61086;BME280;46967;48.876;2.136;2022-12-15T03:58:40;100440.63;;;-1.26;74.98
61086;BME280;46967;48.876;2.136;2022-12-15T04:01:29;100460.16;;;-1.24;74.59
61086;BME280;46967;48.876;2.136;2022-12-15T04:03:56;100459.34;;;-1.23;75.06
61086;BME280;46967;48.876;2.136;2022-12-15T04:06:21;100455.13;;;-1.19;75.15
61086;BME280;46967;48.876;2.136;2022-12-15T04:08:47;100450.88;;;-1.22;75.06
61086;BME280;46967;48.876;2.136;2022-12-15T04:11:13;100453.41;;;-1.23;75.45
61086;BME280;46967;48.876;2.136;2022-12-15T04:13:38;100463.63;;;-1.20;75.44
61086;BME280;46967;48.876;2.136;2022-12-15T04:16:04;100457.69;;;-1.19;75.47
61086;BME280;46967;48.876;2.136;2022-12-15T04:18:30;100450.94;;;-1.19;75.68
61086;BME280;46967;48.876;2.136;2022-12-15T04:20:55;100440.75;;;-1.19;75.53
61086;BME280;46967;48.876;2.136;2022-12-15T04:23:21;100430.56;;;-1.19;75.65
61086;BME280;46967;48.876;2.136;2022-12-15T04:25:46;100442.38;;;-1.21;75.74
61086;BME280;46967;48.876;2.136;2022-12-15T04:28:31;100455.13;;;-1.21;75.96
61086;BME280;46967;48.876;2.136;2022-12-15T04:31:18;100462.03;;;-1.12;75.73
61086;BME280;46967;48.876;2.136;2022-12-15T04:34:04;100467.13;;;-1.12;75.57
61086;BME280;46967;48.876;2.136;2022-12-15T04:36:51;100457.66;;;-1.22;75.94
61086;BME280;46967;48.876;2.136;2022-12-15T04:39:40;100444.09;;;-1.20;75.78
61086;BME280;46967;48.876;2.136;2022-12-15T04:42:26;100445.88;;;-1.16;75.95
61086;BME280;46967;48.876;2.136;2022-12-15T04:45:11;100454.41;;;-1.12;76.06
61086;BME280;46967;48.876;2.136;2022-12-15T04:47:55;100456.84;;;-1.20;76.03
61086;BME280;46967;48.876;2.136;2022-12-15T04:50:39;100460.25;;;-1.19;76.05
61086;BME280;46967;48.876;2.136;2022-12-15T04:53:23;100450.00;;;-1.22;75.99
61086;BME280;46967;48.876;2.136;2022-12-15T04:56:12;100454.22;;;-1.24;75.95
61086;BME280;46967;48.876;2.136;2022-12-15T04:58:56;100454.88;;;-1.41;76.35
61086;BME280;46967;48.876;2.136;2022-12-15T05:01:41;100449.00;;;-1.35;76.17
61086;BME280;46967;48.876;2.136;2022-12-15T05:04:25;100439.69;;;-1.35;76.52
61086;BME280;46967;48.876;2.136;2022-12-15T05:07:09;100443.13;;;-1.31;76.67
61086;BME280;46967;48.876;2.136;2022-12-15T05:09:53;100445.78;;;-1.23;76.35
61086;BME280;46967;48.876;2.136;2022-12-15T05:12:37;100436.38;;;-1.28;76.32
61086;BME280;46967;48.876;2.136;2022-12-15T05:15:21;100442.25;;;-1.33;76.60
61086;BME280;46967;48.876;2.136;2022-12-15T05:18:05;100443.19;;;-1.26;76.11
61086;BME280;46967;48.876;2.136;2022-12-15T05:20:49;100444.78;;;-1.35;76.26
61086;BME280;46967;48.876;2.136;2022-12-15T05:23:33;100446.47;;;-1.34;76.69
61086;BME280;46967;48.876;2.136;2022-12-15T05:26:17;100445.59;;;-1.36;76.73
61086;BME280;46967;48.876;2.136;2022-12-15T05:29:01;100447.34;;;-1.33;76.71
61086;BME280;46967;48.876;2.136;2022-12-15T05:31:45;100451.63;;;-1.29;76.69
61086;BME280;46967;48.876;2.136;2022-12-15T05:34:36;100440.56;;;-1.33;76.59
61086;BME280;46967;48.876;2.136;2022-12-15T05:37:03;100443.94;;;-1.34;76.41
61086;BME280;46967;48.876;2.136;2022-12-15T05:39:29;100448.16;;;-1.36;76.51
61086;BME280;46967;48.876;2.136;2022-12-15T05:41:55;100449.88;;;-1.35;76.50
61086;BME280;46967;48.876;2.136;2022-12-15T05:44:23;100453.28;;;-1.33;76.42
61086;BME280;46967;48.876;2.136;2022-12-15T05:46:49;100446.47;;;-1.34;76.19
61086;BME280;46967;48.876;2.136;2022-12-15T05:49:15;100444.78;;;-1.35;76.22
61086;BME280;46967;48.876;2.136;2022-12-15T05:51:43;100448.19;;;-1.33;75.83
61086;BME280;46967;48.876;2.136;2022-12-15T05:54:10;100449.03;;;-1.32;75.92
61086;BME280;46967;48.876;2.136;2022-12-15T05:56:35;100451.56;;;-1.34;76.02
61086;BME280;46967;48.876;2.136;2022-12-15T05:59:01;100451.53;;;-1.37;76.10
61086;BME280;46967;48.876;2.136;2022-12-15T06:01:27;100445.56;;;-1.39;76.28
61086;BME280;46967;48.876;2.136;2022-12-15T06:03:55;100451.38;;;-1.46;76.52
61086;BME280;46967;48.876;2.136;2022-12-15T06:06:20;100455.50;;;-1.56;76.71
61086;BME280;46967;48.876;2.136;2022-12-15T06:08:45;100463.19;;;-1.53;77.01
61086;BME280;46967;48.876;2.136;2022-12-15T06:11:13;100468.31;;;-1.51;76.77
61086;BME280;46967;48.876;2.136;2022-12-15T06:13:39;100469.16;;;-1.49;77.06
61086;BME280;46967;48.876;2.136;2022-12-15T06:16:10;100460.75;;;-1.45;76.76
61086;BME280;46967;48.876;2.136;2022-12-15T06:18:38;100466.66;;;-1.46;76.86
61086;BME280;46967;48.876;2.136;2022-12-15T06:21:12;100467.50;;;-1.49;76.72
61086;BME280;46967;48.876;2.136;2022-12-15T06:23:38;100466.53;;;-1.57;76.59
61086;BME280;46967;48.876;2.136;2022-12-15T06:26:31;100474.06;;;-1.65;76.96
61086;BME280;46967;48.876;2.136;2022-12-15T06:28:59;100476.47;;;-1.72;77.09
61086;BME280;46967;48.876;2.136;2022-12-15T06:31:27;100479.91;;;-1.70;77.83
61086;BME280;46967;48.876;2.136;2022-12-15T06:33:53;100478.28;;;-1.64;77.07
61086;BME280;46967;48.876;2.136;2022-12-15T06:36:19;100486.88;;;-1.58;77.12
61086;BME280;46967;48.876;2.136;2022-12-15T06:38:45;100486.91;;;-1.57;76.95
61086;BME280;46967;48.876;2.136;2022-12-15T06:41:13;100492.78;;;-1.59;77.30
61086;BME280;46967;48.876;2.136;2022-12-15T06:43:39;100495.25;;;-1.64;77.09
61086;BME280;46967;48.876;2.136;2022-12-15T06:46:05;100491.88;;;-1.65;77.03
61086;BME280;46967;48.876;2.136;2022-12-15T06:48:31;100502.09;;;-1.61;76.99
61086;BME280;46967;48.876;2.136;2022-12-15T06:51:02;100509.75;;;-1.61;77.02
61086;BME280;46967;48.876;2.136;2022-12-15T06:53:28;100507.16;;;-1.63;76.99
61086;BME280;46967;48.876;2.136;2022-12-15T06:56:01;100499.19;;;-1.85;77.46
61086;BME280;46967;48.876;2.136;2022-12-15T06:58:26;100502.56;;;-1.84;77.46
61086;BME280;46967;48.876;2.136;2022-12-15T07:00:52;100501.81;;;-1.80;77.42
61086;BME280;46967;48.876;2.136;2022-12-15T07:03:18;100511.81;;;-1.89;77.42
61086;BME280;46967;48.876;2.136;2022-12-15T07:05:44;100505.91;;;-1.90;77.43
61086;BME280;46967;48.876;2.136;2022-12-15T07:08:11;100508.41;;;-1.91;77.69
61086;BME280;46967;48.876;2.136;2022-12-15T07:10:38;100499.09;;;-1.91;77.72
61086;BME280;46967;48.876;2.136;2022-12-15T07:13:04;100505.75;;;-1.97;78.01
61086;BME280;46967;48.876;2.136;2022-12-15T07:15:30;100512.63;;;-1.93;77.67
61086;BME280;46967;48.876;2.136;2022-12-15T07:17:55;100520.31;;;-1.90;77.67
61086;BME280;46967;48.876;2.136;2022-12-15T07:20:21;100513.53;;;-1.90;77.53
61086;BME280;46967;48.876;2.136;2022-12-15T07:22:50;100523.72;;;-1.88;77.85
61086;BME280;46967;48.876;2.136;2022-12-15T07:25:16;100520.22;;;-1.96;77.69
61086;BME280;46967;48.876;2.136;2022-12-15T07:27:41;100529.44;;;-2.00;77.63
61086;BME280;46967;48.876;2.136;2022-12-15T07:30:07;100527.78;;;-1.99;77.63
61086;BME280;46967;48.876;2.136;2022-12-15T07:32:33;100521.78;;;-2.02;77.81
61086;BME280;46967;48.876;2.136;2022-12-15T07:34:58;100522.66;;;-2.01;78.01
61086;BME280;46967;48.876;2.136;2022-12-15T07:37:24;100521.75;;;-2.05;78.45
61086;BME280;46967;48.876;2.136;2022-12-15T07:39:50;100538.75;;;-2.02;78.20
61086;BME280;46967;48.876;2.136;2022-12-15T07:42:15;100530.31;;;-1.99;78.43
61086;BME280;46967;48.876;2.136;2022-12-15T07:44:41;100534.69;;;-1.91;78.50
61086;BME280;46967;48.876;2.136;2022-12-15T07:47:06;100539.06;;;-1.85;78.36
61086;BME280;46967;48.876;2.136;2022-12-15T07:49:31;100534.94;;;-1.77;78.20
61086;BME280;46967;48.876;2.136;2022-12-15T07:51:57;100544.34;;;-1.73;78.21
61086;BME280;46967;48.876;2.136;2022-12-15T07:54:22;100539.28;;;-1.71;77.99
61086;BME280;46967;48.876;2.136;2022-12-15T07:56:48;100543.66;;;-1.62;77.79
61086;BME280;46967;48.876;2.136;2022-12-15T07:59:13;100541.16;;;-1.59;77.08
61086;BME280;46967;48.876;2.136;2022-12-15T08:01:39;100543.72;;;-1.58;76.82
61086;BME280;46967;48.876;2.136;2022-12-15T08:04:05;100538.66;;;-1.56;77.03
61086;BME280;46967;48.876;2.136;2022-12-15T08:06:30;100552.25;;;-1.54;76.90
61086;BME280;46967;48.876;2.136;2022-12-15T08:08:56;100559.94;;;-1.51;76.78
61086;BME280;46967;48.876;2.136;2022-12-15T08:11:21;100560.03;;;-1.45;76.42
61086;BME280;46967;48.876;2.136;2022-12-15T08:13:48;100570.28;;;-1.42;76.47
61086;BME280;46967;48.876;2.136;2022-12-15T08:16:14;100570.25;;;-1.43;76.11
61086;BME280;46967;48.876;2.136;2022-12-15T08:18:39;100571.16;;;-1.40;75.89
61086;BME280;46967;48.876;2.136;2022-12-15T08:21:07;100577.09;;;-1.41;76.24
61086;BME280;46967;48.876;2.136;2022-12-15T08:23:34;100575.41;;;-1.39;76.10
61086;BME280;46967;48.876;2.136;2022-12-15T08:26:04;100576.22;;;-1.40;76.17
61086;BME280;46967;48.876;2.136;2022-12-15T08:28:31;100588.25;;;-1.33;75.74
61086;BME280;46967;48.876;2.136;2022-12-15T08:31:08;100596.63;;;-1.38;76.08
61086;BME280;46967;48.876;2.136;2022-12-15T08:33:34;100602.56;;;-1.41;75.86
61086;BME280;46967;48.876;2.136;2022-12-15T08:36:01;100600.91;;;-1.37;76.02
61086;BME280;46967;48.876;2.136;2022-12-15T08:38:27;100585.69;;;-1.33;75.64
61086;BME280;46967;48.876;2.136;2022-12-15T08:40:53;100585.41;;;-1.51;75.37
61086;BME280;46967;48.876;2.136;2022-12-15T08:43:18;100586.19;;;-1.55;75.50
61086;BME280;46967;48.876;2.136;2022-12-15T08:45:43;100588.81;;;-1.51;75.38
61086;BME280;46967;48.876;2.136;2022-12-15T08:48:09;100576.94;;;-1.50;76.04
61086;BME280;46967;48.876;2.136;2022-12-15T08:50:34;100569.44;;;-1.41;75.65
61086;BME280;46967;48.876;2.136;2022-12-15T08:52:59;100575.31;;;-1.45;75.83
61086;BME280;46967;48.876;2.136;2022-12-15T08:55:25;100582.81;;;-1.54;75.64
61086;BME280;46967;48.876;2.136;2022-12-15T08:57:52;100586.09;;;-1.61;76.43
61086;BME280;46967;48.876;2.136;2022-12-15T09:00:18;100580.25;;;-1.54;76.28
61086;BME280;46967;48.876;2.136;2022-12-15T09:02:43;100579.38;;;-1.56;76.61
61086;BME280;46967;48.876;2.136;2022-12-15T09:05:09;100589.78;;;-1.42;76.31
61086;BME280;46967;48.876;2.136;2022-12-15T09:07:34;100586.31;;;-1.46;76.14
61086;BME280;46967;48.876;2.136;2022-12-15T09:10:00;100584.56;;;-1.52;76.46
61086;BME280;46967;48.876;2.136;2022-12-15T09:12:25;100586.28;;;-1.51;76.58
61086;BME280;46967;48.876;2.136;2022-12-15T09:14:51;100582.19;;;-1.41;75.99
61086;BME280;46967;48.876;2.136;2022-12-15T09:17:16;100585.69;;;-1.34;75.99
61086;BME280;46967;48.876;2.136;2022-12-15T09:19:42;100594.28;;;-1.26;75.81
61086;BME280;46967;48.876;2.136;2022-12-15T09:22:07;100605.38;;;-1.22;75.46
61086;BME280;46967;48.876;2.136;2022-12-15T09:24:33;100601.28;;;-1.14;75.50
61086;BME280;46967;48.876;2.136;2022-12-15T09:26:58;100612.22;;;-1.20;75.28
61086;BME280;46967;48.876;2.136;2022-12-15T09:29:24;100607.16;;;-1.17;75.29
61086;BME280;46967;48.876;2.136;2022-12-15T09:31:49;100614.03;;;-1.11;74.98
61086;BME280;46967;48.876;2.136;2022-12-15T09:34:15;100612.38;;;-1.09;75.17
61086;BME280;46967;48.876;2.136;2022-12-15T09:36:40;100603.22;;;-0.95;74.53
61086;BME280;46967;48.876;2.136;2022-12-15T09:39:06;100611.88;;;-0.83;74.29
61086;BME280;46967;48.876;2.136;2022-12-15T09:41:34;100607.75;;;-0.74;73.59
61086;BME280;46967;48.876;2.136;2022-12-15T09:44:04;100610.50;;;-0.60;73.28
61086;BME280;46967;48.876;2.136;2022-12-15T09:49:08;100609.88;;;-0.40;72.39
61086;BME280;46967;48.876;2.136;2022-12-15T09:51:45;100629.25;;;-0.55;72.44
61086;BME280;46967;48.876;2.136;2022-12-15T09:54:12;100624.31;;;-0.42;72.06
61086;BME280;46967;48.876;2.136;2022-12-15T09:56:48;100625.22;;;-0.37;72.05
61086;BME280;46967;48.876;2.136;2022-12-15T10:07:26;100620.53;;;-0.03;71.29
61086;BME280;46967;48.876;2.136;2022-12-15T10:09:55;100611.13;;;-0.06;71.04
61086;BME280;46967;48.876;2.136;2022-12-15T10:12:27;100610.34;;;-0.02;70.89
61086;BME280;46967;48.876;2.136;2022-12-15T10:17:47;100610.38;;;0.05;70.78
61086;BME280;46967;48.876;2.136;2022-12-15T10:20:22;100608.75;;;0.10;70.92
61086;BME280;46967;48.876;2.136;2022-12-15T10:22:50;100605.25;;;0.05;70.73
61086;BME280;46967;48.876;2.136;2022-12-15T10:25:19;100604.22;;;-0.14;71.44
61086;BME280;46967;48.876;2.136;2022-12-15T10:28:01;100590.72;;;-0.06;71.32
61086;BME280;46967;48.876;2.136;2022-12-15T10:30:32;100582.25;;;-0.03;71.61
61086;BME280;46967;48.876;2.136;2022-12-15T10:33:16;100588.28;;;0.05;71.20
61086;BME280;46967;48.876;2.136;2022-12-15T10:35:45;100579.06;;;0.20;71.02
61086;BME280;46967;48.876;2.136;2022-12-15T10:40:46;100570.66;;;0.33;70.14
61086;BME280;46967;48.876;2.136;2022-12-15T10:43:22;100568.13;;;0.36;69.96
61086;BME280;46967;48.876;2.136;2022-12-15T10:45:48;100558.78;;;0.40;69.61
61086;BME280;46967;48.876;2.136;2022-12-15T10:48:18;100572.44;;;0.42;69.52
61086;BME280;46967;48.876;2.136;2022-12-15T10:50:44;100562.06;;;0.23;69.88
61086;BME280;46967;48.876;2.136;2022-12-15T10:53:33;100562.91;;;0.24;70.15
61086;BME280;46967;48.876;2.136;2022-12-15T10:56:05;100556.97;;;0.26;70.23
61086;BME280;46967;48.876;2.136;2022-12-15T10:58:31;100559.53;;;0.25;69.92
61086;BME280;46967;48.876;2.136;2022-12-15T11:01:11;100547.56;;;0.21;70.15
61086;BME280;46967;48.876;2.136;2022-12-15T11:03:38;100547.63;;;0.30;69.91
61086;BME280;46967;48.876;2.136;2022-12-15T11:06:12;100535.03;;;0.47;69.88
61086;BME280;46967;48.876;2.136;2022-12-15T11:08:40;100539.34;;;0.57;69.33
61086;BME280;46967;48.876;2.136;2022-12-15T11:11:23;100530.00;;;0.58;68.99
61086;BME280;46967;48.876;2.136;2022-12-15T11:14:17;100525.00;;;0.79;68.81
61086;BME280;46967;48.876;2.136;2022-12-15T11:16:52;100519.94;;;0.90;68.37
61086;BME280;46967;48.876;2.136;2022-12-15T11:21:52;100510.63;;;0.94;67.14
61086;BME280;46967;48.876;2.136;2022-12-15T11:24:27;100512.34;;;1.02;67.18
61086;BME280;46967;48.876;2.136;2022-12-15T11:27:11;100508.09;;;1.07;66.88
61086;BME280;46967;48.876;2.136;2022-12-15T11:29:48;100506.41;;;1.05;67.01
61086;BME280;46967;48.876;2.136;2022-12-15T11:32:18;100501.31;;;1.08;66.62
61086;BME280;46967;48.876;2.136;2022-12-15T11:34:46;100485.94;;;1.02;64.99
61086;BME280;46967;48.876;2.136;2022-12-15T11:37:40;100483.44;;;1.08;65.24
61086;BME280;46967;48.876;2.136;2022-12-15T11:40:28;100473.19;;;1.05;64.44
61086;BME280;46967;48.876;2.136;2022-12-15T11:48:28;100467.22;;;1.07;64.27
61086;BME280;46967;48.876;2.136;2022-12-15T11:51:13;100468.09;;;1.13;64.47
61086;BME280;46967;48.876;2.136;2022-12-15T12:09:29;100441.81;;;2.02;58.47
61086;BME280;46967;48.876;2.136;2022-12-15T12:12:06;100442.66;;;2.10;58.41
61086;BME280;46967;48.876;2.136;2022-12-15T12:17:49;100434.13;;;2.00;55.48
61086;BME280;46967;48.876;2.136;2022-12-15T12:20:16;100425.59;;;2.04;55.46
61086;BME280;46967;48.876;2.136;2022-12-15T12:25:23;100406.75;;;2.39;55.41
61086;BME280;46967;48.876;2.136;2022-12-15T12:27:56;100406.75;;;2.34;53.89
61086;BME280;46967;48.876;2.136;2022-12-15T12:30:28;100391.38;;;2.38;53.55
61086;BME280;46967;48.876;2.136;2022-12-15T12:33:04;100394.84;;;2.23;53.64
61086;BME280;46967;48.876;2.136;2022-12-15T12:38:11;100404.25;;;2.13;53.83
61086;BME280;46967;48.876;2.136;2022-12-15T12:43:07;100393.09;;;2.31;52.48
61086;BME280;46967;48.876;2.136;2022-12-15T12:45:41;100394.00;;;2.21;52.91
61086;BME280;46967;48.876;2.136;2022-12-15T12:48:21;100389.69;;;2.35;53.00
61086;BME280;46967;48.876;2.136;2022-12-15T12:50:48;100388.81;;;2.34;52.34
61086;BME280;46967;48.876;2.136;2022-12-15T12:53:41;100383.66;;;2.47;52.55
61086;BME280;46967;48.876;2.136;2022-12-15T12:56:11;100382.88;;;2.25;52.05
61086;BME280;46967;48.876;2.136;2022-12-15T12:58:52;100379.44;;;2.37;52.32
61086;BME280;46967;48.876;2.136;2022-12-15T13:01:30;100381.94;;;2.52;52.41
61086;BME280;46967;48.876;2.136;2022-12-15T13:04:11;100396.50;;;2.41;51.71
61086;BME280;46967;48.876;2.136;2022-12-15T13:14:17;100378.53;;;2.54;51.28
61086;BME280;46967;48.876;2.136;2022-12-15T13:16:45;100380.25;;;2.51;51.26
61086;BME280;46967;48.876;2.136;2022-12-15T13:19:11;100374.25;;;2.50;50.92
61086;BME280;46967;48.876;2.136;2022-12-15T13:24:18;100376.81;;;2.52;50.58
61086;BME280;46967;48.876;2.136;2022-12-15T13:26:46;100381.09;;;2.47;50.68
61086;BME280;46967;48.876;2.136;2022-12-15T13:29:13;100386.22;;;2.54;50.46
61086;BME280;46967;48.876;2.136;2022-12-15T13:31:45;100371.63;;;2.74;50.79
61086;BME280;46967;48.876;2.136;2022-12-15T13:34:14;100371.63;;;2.69;50.13
61086;BME280;46967;48.876;2.136;2022-12-15T13:44:19;100345.19;;;2.64;50.19
61086;BME280;46967;48.876;2.136;2022-12-15T13:46:51;100351.97;;;2.72;50.36
61086;BME280;46967;48.876;2.136;2022-12-15T13:51:57;100347.75;;;2.62;50.70
61086;BME280;46967;48.876;2.136;2022-12-15T13:54:31;100343.41;;;2.81;48.89
61086;BME280;46967;48.876;2.136;2022-12-15T13:57:04;100336.47;;;2.94;49.44
61086;BME280;46967;48.876;2.136;2022-12-15T14:07:38;100322.03;;;2.81;47.57
61086;BME280;46967;48.876;2.136;2022-12-15T14:10:06;100323.72;;;2.82;46.89
61086;BME280;46967;48.876;2.136;2022-12-15T14:12:40;100332.34;;;2.68;45.45
61086;BME280;46967;48.876;2.136;2022-12-15T14:15:12;100338.31;;;2.67;45.69
61086;BME280;46967;48.876;2.136;2022-12-15T14:17:38;100337.44;;;2.78;45.87
61086;BME280;46967;48.876;2.136;2022-12-15T14:20:12;100340.81;;;2.83;44.95
61086;BME280;46967;48.876;2.136;2022-12-15T14:22:41;100347.56;;;2.98;44.90
61086;BME280;46967;48.876;2.136;2022-12-15T14:25:18;100348.38;;;3.03;43.69
61086;BME280;46967;48.876;2.136;2022-12-15T14:27:44;100351.03;;;2.92;43.55
61086;BME280;46967;48.876;2.136;2022-12-15T14:30:23;100366.44;;;2.89;43.60
61086;BME280;46967;48.876;2.136;2022-12-15T14:33:10;100366.22;;;3.21;43.54
61086;BME280;46967;48.876;2.136;2022-12-15T14:35:45;100364.31;;;3.51;42.28
61086;BME280;46967;48.876;2.136;2022-12-15T14:38:16;100364.28;;;3.56;42.52
61086;BME280;46967;48.876;2.136;2022-12-15T14:40:43;100367.84;;;3.36;42.75
61086;BME280;46967;48.876;2.136;2022-12-15T14:43:19;100373.19;;;3.02;42.17
61086;BME280;46967;48.876;2.136;2022-12-15T14:45:48;100370.75;;;2.76;42.71
61086;BME280;46967;48.876;2.136;2022-12-15T14:48:24;100384.47;;;2.61;42.91
61086;BME280;46967;48.876;2.136;2022-12-15T14:50:52;100388.78;;;2.54;43.39
61086;BME280;46967;48.876;2.136;2022-12-15T14:53:18;100385.41;;;2.45;43.16
61086;BME280;46967;48.876;2.136;2022-12-15T14:55:45;100383.69;;;2.39;43.00
61086;BME280;46967;48.876;2.136;2022-12-15T14:58:30;100385.41;;;2.34;43.28
61086;BME280;46967;48.876;2.136;2022-12-15T15:00:57;100380.31;;;2.29;42.58